Terminal Aerodrome Forecast
Issued by NWS Lake Charles, LA

Home | Current Version | Previous Version | Text Only | Print | Product List | Glossary On
Versions: 1 2 3 4 5 6 7 8 9 10 11 12 13 14 15 16 17 18 19
124
FTUS44 KLCH 050539
TAFLCH
TAF
KLCH 050539Z 0506/0606 02010KT P6SM VCSH OVC007
     FM051500 07011KT 4SM -SHRA BR OVC007
     FM051800 11012KT 2SM TSRA BR OVC005CB
     FM060000 VRB06KT 2SM TSRA BR OVC003CB
     FM060300 27010KT 5SM BR VCSH OVC005=

USA.gov is the U.S. government's official web portal to all federal, state and local government web resources and services.